IAH weather

George Bush Intercontinental Houston Airport
Houston, Texas, United States

Public forecast

Using degrees Fahrenheit for public forecast. Weather courtesy of forecast.io.

METAR (pilot weather report)

Retrieved 2018/12/13 17:53 UTC (37 minutes ago):

KIAH 131753Z 21009G18KT 10SM BKN024 BKN110 22/17 A2973 RMK AO2 SLP066 60001 T02220167 10228 20178 58015

TAF (pilot weather forecast)

Retrieved 2018/12/13 18:42 UTC (0 seconds ago):

TAF KIAH 131741Z 1318/1424 18007KT P6SM FEW080 FM132000 22010KT P6SM VCSH FEW035 SCT090 FM132200 24010KT P6SM FEW080 FM140600 25011G17KT P6SM SCT025 FM141100 28014G24KT P6SM VCSH FEW008 OVC015 FM141700 31016G28KT P6SM VCSH SCT015 OVC020 FM141900 34015G26KT P6SM BKN022